createdAt,value
2023-05-20T00:00:49.925Z,100502.06
2023-05-20T00:01:52.994Z,100499.53
2023-05-20T00:02:54.803Z,100508.03
2023-05-20T00:03:57.707Z,100499.13
2023-05-20T00:04:59.912Z,100498.25
2023-05-20T00:06:02.751Z,100503.78
2023-05-20T00:07:05.308Z,100508.44
2023-05-20T00:08:09.614Z,100503.13
2023-05-20T00:09:11.526Z,100506.31
2023-05-20T00:10:14.565Z,100504.00
2023-05-20T00:11:16.314Z,100500.41
2023-05-20T00:12:19.084Z,100503.56
2023-05-20T00:13:20.830Z,100500.00
2023-05-20T00:14:23.616Z,100486.63
2023-05-20T00:15:27.046Z,100498.28
2023-05-20T00:16:29.941Z,100495.75
2023-05-20T00:17:31.896Z,100497.69
2023-05-20T00:18:34.623Z,100498.72
2023-05-20T00:19:36.441Z,100496.19
2023-05-20T00:20:39.143Z,100499.13
2023-05-20T00:21:40.859Z,100497.47
2023-05-20T00:22:43.567Z,100495.13
2023-05-20T00:23:45.320Z,100500.00
2023-05-20T00:24:48.063Z,100500.22
2023-05-20T00:25:49.972Z,100494.72
2023-05-20T00:26:52.788Z,100489.63
2023-05-20T00:27:54.534Z,100503.41
2023-05-20T00:28:57.231Z,100496.19
2023-05-20T00:29:59.025Z,100493.66
2023-05-20T00:31:03.123Z,100487.28
2023-05-20T00:32:05.400Z,100493.03
2023-05-20T00:33:08.208Z,100491.53
2023-05-20T00:34:10.023Z,100497.25
2023-05-20T00:35:13.103Z,100499.19
2023-05-20T00:36:14.840Z,100493.03
2023-05-20T00:37:17.582Z,100497.69
2023-05-20T00:38:19.290Z,100478.59
2023-05-20T00:39:22.005Z,100489.63
2023-05-20T00:40:25.080Z,100489.84
2023-05-20T00:41:28.287Z,100489.84
2023-05-20T00:42:30.056Z,100486.25
2023-05-20T00:43:32.845Z,100486.25
2023-05-20T00:44:34.606Z,100491.75
2023-05-20T00:45:38.245Z,100490.06
2023-05-20T00:46:41.496Z,100485.59
2023-05-20T00:47:44.705Z,100485.84
2023-05-20T00:48:46.653Z,100493.25
2023-05-20T00:49:52.005Z,100487.50
2023-05-20T00:50:53.758Z,100487.75
2023-05-20T00:51:56.551Z,100489.00
2023-05-20T00:52:58.851Z,100483.72
2023-05-20T00:54:01.866Z,100493.03
2023-05-20T00:55:04.193Z,100484.78
2023-05-20T00:56:07.978Z,100486.66
2023-05-20T00:57:09.971Z,100482.22
2023-05-20T00:58:12.755Z,100491.53
2023-05-20T00:59:14.530Z,100486.25
2023-05-20T01:00:17.370Z,100483.91
2023-05-20T01:01:19.230Z,100484.97
2023-05-20T01:02:23.573Z,100488.56
2023-05-20T01:03:25.798Z,100482.44
2023-05-20T01:04:28.781Z,100485.19
2023-05-20T01:05:30.553Z,100492.41
2023-05-20T01:06:33.818Z,100484.53
2023-05-20T01:07:35.769Z,100487.09
2023-05-20T01:08:38.566Z,100485.19
2023-05-20T01:09:40.455Z,100481.59
2023-05-20T01:10:47.586Z,100488.16
2023-05-20T01:11:53.001Z,100487.28
2023-05-20T01:12:58.346Z,100484.75
2023-05-20T01:14:03.870Z,100480.31
2023-05-20T01:15:09.190Z,100483.06
2023-05-20T01:16:11.662Z,100479.66
2023-05-20T01:17:17.887Z,100470.78
2023-05-20T01:18:21.089Z,100468.84
2023-05-20T01:19:29.719Z,100469.94
2023-05-20T01:20:32.672Z,100467.38
2023-05-20T01:21:36.503Z,100472.88
2023-05-20T01:22:39.875Z,100467.81
2023-05-20T01:23:43.207Z,100464.38
2023-05-20T01:24:48.274Z,100464.81
2023-05-20T01:25:51.025Z,100466.47
2023-05-20T01:26:52.808Z,100462.47
2023-05-20T01:27:56.270Z,100467.97
2023-05-20T01:28:58.184Z,100468.81
2023-05-20T01:30:00.992Z,100469.88
2023-05-20T01:31:04.244Z,100471.78
2023-05-20T01:32:08.992Z,100459.94
2023-05-20T01:33:11.818Z,100464.78
2023-05-20T01:34:14.637Z,100463.94
2023-05-20T01:35:17.424Z,100461.19
2023-05-20T01:36:21.135Z,100456.97
2023-05-20T01:37:23.468Z,100463.31
2023-05-20T01:38:28.150Z,100466.91
2023-05-20T01:39:30.496Z,100462.47
2023-05-20T01:40:34.413Z,100456.97
2023-05-20T01:41:36.934Z,100458.88
2023-05-20T01:42:40.125Z,100456.13
2023-05-20T01:43:42.134Z,100465.44
2023-05-20T01:44:45.025Z,100463.72
2023-05-20T01:45:46.810Z,100457.38
2023-05-20T01:46:50.676Z,100460.34
2023-05-20T01:47:52.586Z,100450.41
2023-05-20T01:48:55.275Z,100455.06
2023-05-20T01:49:57.066Z,100449.75
2023-05-20T01:50:59.806Z,100454.63
2023-05-20T01:52:01.515Z,100443.63
2023-05-20T01:53:04.342Z,100447.00
2023-05-20T01:54:07.559Z,100452.50
2023-05-20T01:55:10.973Z,100444.25
2023-05-20T01:56:12.692Z,100445.28
2023-05-20T01:57:15.495Z,100441.94
2023-05-20T01:58:17.340Z,100439.16
2023-05-20T01:59:20.044Z,100432.63
2023-05-20T02:00:22.502Z,100444.88
2023-05-20T02:01:25.445Z,100439.38
2023-05-20T02:02:27.265Z,100442.13
2023-05-20T02:03:30.063Z,100436.63
2023-05-20T02:04:31.817Z,100438.53
2023-05-20T02:05:34.691Z,100439.81
2023-05-20T02:06:36.609Z,100438.94
2023-05-20T02:07:39.357Z,100436.41
2023-05-20T02:08:41.068Z,100441.06
2023-05-20T02:09:45.257Z,100435.53
2023-05-20T02:10:49.260Z,100439.38
2023-05-20T02:11:50.999Z,100438.72
2023-05-20T02:12:53.737Z,100434.28
2023-05-20T02:13:55.595Z,100432.56
2023-05-20T02:14:58.445Z,100441.91
2023-05-20T02:16:00.336Z,100438.94
2023-05-20T02:17:03.208Z,100433.66
2023-05-20T02:18:05.770Z,100437.22
2023-05-20T02:19:12.775Z,100435.56
2023-05-20T02:20:14.816Z,100431.53
2023-05-20T02:21:17.506Z,100431.53
2023-05-20T02:22:19.226Z,100429.59
2023-05-20T02:23:21.929Z,100434.28
2023-05-20T02:24:23.696Z,100434.28
2023-05-20T02:25:27.825Z,100432.34
2023-05-20T02:26:30.004Z,100431.72
2023-05-20T02:27:32.736Z,100427.28
2023-05-20T02:28:34.456Z,100435.53
2023-05-20T02:29:37.163Z,100434.06
2023-05-20T02:30:39.082Z,100434.25
2023-05-20T02:31:41.809Z,100432.56
2023-05-20T02:32:43.629Z,100431.72
2023-05-20T02:33:46.677Z,100430.84
2023-05-20T02:34:48.462Z,100433.84
2023-05-20T02:35:51.162Z,100434.88
2023-05-20T02:36:52.921Z,100429.59
2023-05-20T02:37:55.628Z,100436.78
2023-05-20T02:38:57.474Z,100438.25
2023-05-20T02:40:00.184Z,100430.00
2023-05-20T02:41:04.626Z,100430.19
2023-05-20T02:42:07.373Z,100427.66
2023-05-20T02:43:09.322Z,100432.09
2023-05-20T02:44:12.051Z,100436.56
2023-05-20T02:45:13.819Z,100435.69
2023-05-20T02:46:18.620Z,100433.81
2023-05-20T02:47:20.411Z,100433.81
2023-05-20T02:48:23.136Z,100431.91
2023-05-20T02:49:24.869Z,100434.66
2023-05-20T02:50:27.571Z,100432.94
2023-05-20T02:51:29.350Z,100430.19
2023-05-20T02:52:32.095Z,100436.75
2023-05-20T02:53:33.887Z,100430.41
2023-05-20T02:54:36.622Z,100427.88
2023-05-20T02:55:38.468Z,100423.44
2023-05-20T02:56:42.519Z,100424.47
2023-05-20T02:57:44.333Z,100421.94
2023-05-20T02:58:47.082Z,100421.09
2023-05-20T02:59:48.860Z,100428.50
2023-05-20T03:00:51.597Z,100424.69
2023-05-20T03:01:53.373Z,100423.63
2023-05-20T03:02:56.096Z,100421.09
2023-05-20T03:03:57.882Z,100419.19
2023-05-20T03:05:00.679Z,100420.25
2023-05-20T03:06:02.429Z,100432.91
2023-05-20T03:07:05.697Z,100423.63
2023-05-20T03:08:09.559Z,100429.13
2023-05-20T03:09:12.390Z,100425.53
2023-05-20T03:10:14.206Z,100418.34
2023-05-20T03:11:17.095Z,100419.19
2023-05-20T03:12:20.211Z,100420.88
2023-05-20T03:13:22.913Z,100419.81
2023-05-20T03:14:24.714Z,100415.19
2023-05-20T03:15:27.400Z,100416.22
2023-05-20T03:16:29.379Z,100423.44
2023-05-20T03:17:32.150Z,100410.72
2023-05-20T03:18:33.889Z,100406.28
2023-05-20T03:19:36.997Z,100412.00
2023-05-20T03:20:38.759Z,100407.56
2023-05-20T03:21:41.532Z,100407.56
2023-05-20T03:22:43.284Z,100405.84
2023-05-20T03:23:46.338Z,100412.41
2023-05-20T03:24:48.468Z,100408.59
2023-05-20T03:25:51.582Z,100405.84
2023-05-20T03:26:53.333Z,100413.06
2023-05-20T03:27:58.325Z,100413.06
2023-05-20T03:29:00.057Z,100405.84
2023-05-20T03:30:02.728Z,100412.19
2023-05-20T03:31:04.622Z,100414.94
2023-05-20T03:32:10.606Z,100414.09
2023-05-20T03:33:12.687Z,100410.50
2023-05-20T03:34:15.429Z,100411.34
2023-05-20T03:35:17.274Z,100406.91
2023-05-20T03:36:20.004Z,100416.00
2023-05-20T03:37:21.725Z,100407.97
2023-05-20T03:38:24.478Z,100415.16
2023-05-20T03:39:26.295Z,100407.97
2023-05-20T03:40:29.070Z,100405.22
2023-05-20T03:41:30.897Z,100412.41
2023-05-20T03:42:33.618Z,100411.34
2023-05-20T03:43:36.734Z,100405.66
2023-05-20T03:44:39.428Z,100412.84
2023-05-20T03:45:41.157Z,100408.19
2023-05-20T03:46:44.049Z,100410.94
2023-05-20T03:47:45.902Z,100415.38
2023-05-20T03:48:48.632Z,100409.88
2023-05-20T03:49:50.360Z,100418.78
2023-05-20T03:50:53.109Z,100412.22
2023-05-20T03:51:54.864Z,100410.09
2023-05-20T03:52:57.582Z,100405.25
2023-05-20T03:53:59.316Z,100406.97
2023-05-20T03:55:02.072Z,100403.13
2023-05-20T03:56:04.202Z,100406.72
2023-05-20T03:57:07.102Z,100408.44
2023-05-20T03:58:08.939Z,100405.69
2023-05-20T03:59:13.016Z,100409.28
2023-05-20T04:00:16.835Z,100402.72
2023-05-20T04:01:19.744Z,100413.50
2023-05-20T04:02:21.833Z,100412.69
2023-05-20T04:03:24.704Z,100413.72
2023-05-20T04:04:26.621Z,100419.84
2023-05-20T04:05:29.321Z,100415.19
2023-05-20T04:06:31.606Z,100412.25
2023-05-20T04:07:34.329Z,100420.50
2023-05-20T04:08:36.605Z,100416.72
2023-05-20T04:09:39.543Z,100415.63
2023-05-20T04:10:42.632Z,100414.38
2023-05-20T04:11:45.452Z,100414.38
2023-05-20T04:12:47.189Z,100415.22
2023-05-20T04:13:49.854Z,100422.44
2023-05-20T04:14:52.935Z,100420.53
2023-05-20T04:15:55.642Z,100412.91
2023-05-20T04:16:57.491Z,100414.41
2023-05-20T04:18:01.369Z,100417.78
2023-05-20T04:19:03.450Z,100414.81
2023-05-20T04:20:08.156Z,100415.44
2023-05-20T04:21:09.868Z,100426.44
2023-05-20T04:22:12.630Z,100426.25
2023-05-20T04:23:14.353Z,100422.25
2023-05-20T04:24:17.158Z,100428.38
2023-05-20T04:25:19.223Z,100421.63
2023-05-20T04:26:22.684Z,100418.63
2023-05-20T04:27:24.463Z,100419.28
2023-05-20T04:28:28.141Z,100419.09
2023-05-20T04:29:30.174Z,100420.56
2023-05-20T04:30:35.575Z,100414.63
2023-05-20T04:31:38.586Z,100415.06
2023-05-20T04:32:41.635Z,100415.47
2023-05-20T04:33:44.549Z,100416.94
2023-05-20T04:34:48.193Z,100415.53
2023-05-20T04:35:49.934Z,100414.44
2023-05-20T04:36:52.652Z,100413.19
2023-05-20T04:37:55.326Z,100416.34
2023-05-20T04:38:58.264Z,100416.16
2023-05-20T04:40:00.015Z,100412.75
2023-05-20T04:41:03.144Z,100411.72
2023-05-20T04:42:05.455Z,100415.94
2023-05-20T04:43:08.150Z,100419.09
2023-05-20T04:44:09.929Z,100412.34
2023-05-20T04:45:13.554Z,100409.16
2023-05-20T04:46:16.933Z,100410.00
2023-05-20T04:47:19.701Z,100407.88
2023-05-20T04:48:22.372Z,100412.31
2023-05-20T04:49:25.944Z,100408.91
2023-05-20T04:50:28.542Z,100414.00
2023-05-20T04:51:31.319Z,100409.13
2023-05-20T04:52:33.012Z,100403.19
2023-05-20T04:53:36.068Z,100405.31
2023-05-20T04:54:38.413Z,100399.34
2023-05-20T04:55:41.253Z,100400.63
2023-05-20T04:56:42.955Z,100402.72
2023-05-20T04:57:45.678Z,100396.56
2023-05-20T04:58:47.406Z,100397.00
2023-05-20T04:59:50.178Z,100393.81
2023-05-20T05:00:52.472Z,100393.16
2023-05-20T05:01:56.615Z,100398.00
2023-05-20T05:02:58.407Z,100400.09
2023-05-20T05:04:01.127Z,100394.19
2023-05-20T05:05:02.905Z,100396.28
2023-05-20T05:06:05.795Z,100385.88
2023-05-20T05:07:07.573Z,100390.72
2023-05-20T05:08:11.525Z,100389.25
2023-05-20T05:09:13.574Z,100388.63
2023-05-20T05:10:16.775Z,100382.03
2023-05-20T05:11:18.475Z,100377.53
2023-05-20T05:12:21.223Z,100386.22
2023-05-20T05:13:23.007Z,100386.19
2023-05-20T05:14:25.742Z,100386.38
2023-05-20T05:15:28.020Z,100382.94
2023-05-20T05:16:30.848Z,100387.81
2023-05-20T05:17:34.039Z,100391.81
2023-05-20T05:18:36.845Z,100390.06
2023-05-20T05:19:38.586Z,100389.41
2023-05-20T05:20:41.653Z,100390.66
2023-05-20T05:21:43.416Z,100389.13
2023-05-20T05:22:46.153Z,100393.38
2023-05-20T05:23:47.964Z,100390.81
2023-05-20T05:24:50.847Z,100382.06
2023-05-20T05:25:53.146Z,100384.16
2023-05-20T05:26:56.250Z,100382.63
2023-05-20T05:27:58.033Z,100383.66
2023-05-20T05:29:00.802Z,100384.06
2023-05-20T05:30:02.878Z,100381.69
2023-05-20T05:31:06.632Z,100372.94
2023-05-20T05:32:08.372Z,100378.47
2023-05-20T05:33:13.898Z,100377.78
2023-05-20T05:34:15.634Z,100383.69
2023-05-20T05:35:18.444Z,100380.47
2023-05-20T05:36:20.231Z,100377.50
2023-05-20T05:37:23.140Z,100377.06
2023-05-20T05:38:25.108Z,100371.28
2023-05-20T05:39:27.822Z,100377.19
2023-05-20T05:40:29.593Z,100375.91
2023-05-20T05:41:32.298Z,100375.69
2023-05-20T05:42:34.095Z,100371.81
2023-05-20T05:43:36.891Z,100378.19
2023-05-20T05:44:38.597Z,100371.41
2023-05-20T05:45:42.833Z,100377.31
2023-05-20T05:46:44.560Z,100373.25
2023-05-20T05:47:47.293Z,100378.53
2023-05-20T05:48:50.984Z,100379.16
2023-05-20T05:49:53.694Z,100378.09
2023-05-20T05:50:55.447Z,100380.38
2023-05-20T05:51:58.213Z,100368.28
2023-05-20T05:52:59.955Z,100377.16
2023-05-20T05:54:02.674Z,100372.03
2023-05-20T05:55:05.102Z,100376.47
2023-05-20T05:56:08.484Z,100367.13
2023-05-20T05:57:12.020Z,100371.94
2023-05-20T05:58:14.821Z,100376.19
2023-05-20T05:59:16.560Z,100369.34
2023-05-20T06:00:19.499Z,100368.91
2023-05-20T06:01:21.725Z,100366.94
2023-05-20T06:02:24.889Z,100376.09
2023-05-20T06:03:26.786Z,100374.81
2023-05-20T06:04:31.148Z,100373.47
2023-05-20T06:05:33.131Z,100376.03
2023-05-20T06:06:36.355Z,100376.88
2023-05-20T06:07:38.148Z,100379.44
2023-05-20T06:08:40.833Z,100369.19
2023-05-20T06:09:42.670Z,100373.91
2023-05-20T06:10:48.856Z,100369.19
2023-05-20T06:11:50.653Z,100373.91
2023-05-20T06:12:53.426Z,100369.19
2023-05-20T06:13:55.304Z,100371.50
2023-05-20T06:14:58.028Z,100370.44
2023-05-20T06:15:59.804Z,100369.97
2023-05-20T06:17:02.797Z,100371.88
2023-05-20T06:18:04.701Z,100368.63
2023-05-20T06:19:09.313Z,100372.91
2023-05-20T06:20:13.155Z,100370.75
2023-05-20T06:21:15.869Z,100375.19
2023-05-20T06:22:17.644Z,100376.06
2023-05-20T06:23:20.514Z,100373.28
2023-05-20T06:24:24.242Z,100370.28
2023-05-20T06:25:27.252Z,100374.50
2023-05-20T06:26:28.971Z,100370.91
2023-05-20T06:27:31.723Z,100374.91
2023-05-20T06:28:34.465Z,100380.19
2023-05-20T06:29:36.182Z,100367.84
2023-05-20T06:30:38.939Z,100376.72
2023-05-20T06:31:40.781Z,100378.19
2023-05-20T06:32:43.516Z,100371.34
2023-05-20T06:33:45.726Z,100378.56
2023-05-20T06:34:48.500Z,100380.47
2023-05-20T06:35:52.636Z,100375.81
2023-05-20T06:36:54.709Z,100371.72
2023-05-20T06:37:57.493Z,100368.72
2023-05-20T06:38:59.261Z,100367.16
2023-05-20T06:40:01.963Z,100363.69
2023-05-20T06:41:03.688Z,100366.88
2023-05-20T06:42:06.744Z,100364.69
2023-05-20T06:43:08.530Z,100362.53
2023-05-20T06:44:11.258Z,100366.16
2023-05-20T06:45:14.022Z,100360.38
2023-05-20T06:46:16.812Z,100361.84
2023-05-20T06:47:19.080Z,100358.00
2023-05-20T06:48:21.901Z,100346.44
2023-05-20T06:49:24.773Z,100358.97
2023-05-20T06:50:28.246Z,100347.88
2023-05-20T06:51:31.346Z,100342.13
2023-05-20T06:52:34.141Z,100354.91
2023-05-20T06:53:36.104Z,100352.13
2023-05-20T06:54:41.341Z,100344.66
2023-05-20T06:55:43.057Z,100348.50
2023-05-20T06:56:45.777Z,100345.75
2023-05-20T06:57:47.609Z,100349.34
2023-05-20T06:58:50.389Z,100348.28
2023-05-20T06:59:52.100Z,100351.91
2023-05-20T07:00:54.824Z,100356.94
2023-05-20T07:01:57.567Z,100352.84
2023-05-20T07:02:59.789Z,100356.47
2023-05-20T07:04:02.629Z,100356.47
2023-05-20T07:05:04.928Z,100355.41
2023-05-20T07:06:07.776Z,100359.63
2023-05-20T07:07:10.894Z,100356.59
2023-05-20T07:08:13.725Z,100357.22
2023-05-20T07:09:15.426Z,100362.53
2023-05-20T07:10:18.279Z,100355.88
2023-05-20T07:11:19.981Z,100353.97
2023-05-20T07:12:22.661Z,100356.75
2023-05-20T07:13:25.939Z,100362.91
2023-05-20T07:14:28.668Z,100352.66
2023-05-20T07:15:30.562Z,100350.50
2023-05-20T07:16:35.069Z,100350.50
2023-05-20T07:17:37.141Z,100357.50
2023-05-20T07:18:40.078Z,100354.28
2023-05-20T07:19:41.828Z,100352.97
2023-05-20T07:20:45.383Z,100346.09
2023-05-20T07:21:47.271Z,100357.78
2023-05-20T07:22:52.849Z,100345.63
2023-05-20T07:23:54.660Z,100351.53
2023-05-20T07:24:57.373Z,100345.50
2023-05-20T07:25:59.159Z,100345.03
2023-05-20T07:27:01.884Z,100350.94
2023-05-20T07:28:04.070Z,100342.78
2023-05-20T07:29:06.924Z,100345.66
2023-05-20T07:30:10.221Z,100341.06
2023-05-20T07:31:12.021Z,100345.28
2023-05-20T07:32:14.823Z,100346.00
2023-05-20T07:33:17.147Z,100334.19
2023-05-20T07:34:19.887Z,100338.78
2023-05-20T07:35:21.641Z,100331.44
2023-05-20T07:36:24.492Z,100329.41
2023-05-20T07:37:26.229Z,100334.06
2023-05-20T07:38:30.314Z,100328.78
2023-05-20T07:39:32.114Z,100330.34
2023-05-20T07:40:36.861Z,100341.28
2023-05-20T07:41:38.834Z,100328.38
2023-05-20T07:42:41.530Z,100325.94
2023-05-20T07:43:43.338Z,100331.59
2023-05-20T07:44:46.089Z,100334.22
2023-05-20T07:45:47.863Z,100332.03
2023-05-20T07:46:50.648Z,100330.72
2023-05-20T07:47:52.501Z,100329.97
2023-05-20T07:48:55.380Z,100334.19
2023-05-20T07:49:57.204Z,100328.16
2023-05-20T07:50:59.932Z,100332.34
2023-05-20T07:52:03.094Z,100328.81
2023-05-20T07:53:06.064Z,100325.06
2023-05-20T07:54:09.224Z,100330.72
2023-05-20T07:55:13.367Z,100328.28
2023-05-20T07:56:15.178Z,100324.31
2023-05-20T07:57:17.939Z,100326.34
2023-05-20T07:58:19.732Z,100327.28
2023-05-20T07:59:22.509Z,100329.53
2023-05-20T08:00:24.812Z,100327.38
2023-05-20T08:01:27.897Z,100326.00
2023-05-20T08:02:29.848Z,100326.34
2023-05-20T08:03:32.633Z,100333.06
2023-05-20T08:04:35.211Z,100321.72
2023-05-20T08:05:38.474Z,100322.31
2023-05-20T08:06:40.960Z,100332.69
2023-05-20T08:07:43.668Z,100317.72
2023-05-20T08:08:45.445Z,100314.66
2023-05-20T08:09:49.557Z,100319.97
2023-05-20T08:10:51.960Z,100314.97
2023-05-20T08:11:54.666Z,100316.19
2023-05-20T08:12:56.909Z,100317.38
2023-05-20T08:13:59.682Z,100316.84
2023-05-20T08:15:01.560Z,100319.72
2023-05-20T08:16:05.852Z,100318.94
2023-05-20T08:17:07.736Z,100320.97
2023-05-20T08:18:10.930Z,100316.56
2023-05-20T08:19:12.804Z,100316.69
2023-05-20T08:20:15.514Z,100312.66
2023-05-20T08:21:17.195Z,100315.22
2023-05-20T08:22:19.877Z,100312.59
2023-05-20T08:23:21.624Z,100303.25
2023-05-20T08:24:24.478Z,100309.19
2023-05-20T08:25:27.605Z,100307.31
2023-05-20T08:26:30.320Z,100305.13
2023-05-20T08:27:32.136Z,100310.44
2023-05-20T08:28:34.846Z,100314.44
2023-05-20T08:29:36.659Z,100309.47
2023-05-20T08:30:39.907Z,100303.66
2023-05-20T08:31:41.690Z,100303.91
2023-05-20T08:32:44.478Z,100305.66
2023-05-20T08:33:46.286Z,100306.59
2023-05-20T08:34:49.794Z,100300.50
2023-05-20T08:35:51.629Z,100302.75
2023-05-20T08:36:54.519Z,100306.69
2023-05-20T08:37:56.274Z,100300.63
2023-05-20T08:38:58.965Z,100303.47
2023-05-20T08:40:00.744Z,100301.84
2023-05-20T08:41:04.799Z,100298.63
2023-05-20T08:42:07.944Z,100309.03
2023-05-20T08:43:10.888Z,100306.09
2023-05-20T08:44:12.712Z,100300.63
2023-05-20T08:45:18.446Z,100294.88
2023-05-20T08:46:20.632Z,100293.59
2023-05-20T08:47:23.573Z,100295.31
2023-05-20T08:48:26.718Z,100301.53
2023-05-20T08:49:29.453Z,100298.56
2023-05-20T08:50:31.740Z,100298.13
2023-05-20T08:51:34.631Z,100301.00
2023-05-20T08:52:37.443Z,100297.72
2023-05-20T08:53:41.040Z,100311.16
2023-05-20T08:54:46.084Z,100302.25
2023-05-20T08:55:55.081Z,100305.41
2023-05-20T08:56:58.203Z,100306.00
2023-05-20T08:58:01.109Z,100313.88
2023-05-20T08:59:03.941Z,100314.53
2023-05-20T09:00:13.258Z,100307.28
2023-05-20T09:01:15.067Z,100316.78
2023-05-20T09:02:18.333Z,100303.69
2023-05-20T09:03:20.310Z,100314.03
2023-05-20T09:04:23.138Z,100314.31
2023-05-20T09:05:24.942Z,100314.31
2023-05-20T09:06:27.628Z,100301.78
2023-05-20T09:07:29.467Z,100311.81
2023-05-20T09:08:32.284Z,100305.41
2023-05-20T09:09:35.552Z,100304.03
2023-05-20T09:10:41.231Z,100310.16
2023-05-20T09:11:43.247Z,100311.84
2023-05-20T09:12:47.337Z,100307.09
2023-05-20T09:13:50.310Z,100312.75
2023-05-20T09:14:53.029Z,100304.63
2023-05-20T09:15:55.841Z,100299.88
2023-05-20T09:16:57.715Z,100302.41
2023-05-20T09:18:01.994Z,100304.91
2023-05-20T09:19:06.880Z,100307.16
2023-05-20T09:20:11.837Z,100305.75
2023-05-20T09:21:13.577Z,100300.44
2023-05-20T09:22:18.776Z,100308.53
2023-05-20T09:23:21.634Z,100290.38
2023-05-20T09:24:25.397Z,100291.22
2023-05-20T09:25:27.308Z,100285.91
2023-05-20T09:26:30.413Z,100287.28
2023-05-20T09:27:32.687Z,100292.84
2023-05-20T09:28:38.421Z,100293.69
2023-05-20T09:29:40.200Z,100286.66
2023-05-20T09:30:45.791Z,100295.59
2023-05-20T09:31:48.451Z,100293.34
2023-05-20T09:32:55.491Z,100293.34
2023-05-20T09:33:57.474Z,100290.53
2023-05-20T09:35:01.403Z,100290.25
2023-05-20T09:36:04.630Z,100296.09
2023-05-20T09:37:08.670Z,100290.22
2023-05-20T09:38:12.642Z,100292.41
2023-05-20T09:39:16.350Z,100294.69
2023-05-20T09:40:21.187Z,100297.22
2023-05-20T09:41:25.885Z,100286.63
2023-05-20T09:42:36.064Z,100287.19
2023-05-20T09:43:39.984Z,100287.50
2023-05-20T09:44:45.110Z,100291.69
2023-05-20T09:45:46.951Z,100281.59
2023-05-20T09:46:50.710Z,100281.06
2023-05-20T09:47:52.814Z,100282.16
2023-05-20T09:48:55.757Z,100282.97
2023-05-20T09:49:57.612Z,100278.50
2023-05-20T09:51:00.826Z,100286.06
2023-05-20T09:52:04.076Z,100284.69
2023-05-20T09:53:07.654Z,100292.75
2023-05-20T09:54:09.547Z,100286.06
2023-05-20T09:55:13.100Z,100281.59
2023-05-20T09:56:14.957Z,100290.84
2023-05-20T09:57:17.677Z,100282.44
2023-05-20T09:58:20.322Z,100287.75
2023-05-20T09:59:24.935Z,100282.16
2023-05-20T10:00:27.489Z,100279.13
2023-05-20T10:01:30.351Z,100283.28
2023-05-20T10:02:32.330Z,100279.66
2023-05-20T10:03:36.067Z,100279.41
2023-05-20T10:05:37.891Z,100282.50
2023-05-20T10:07:13.987Z,100281.72
2023-05-20T10:08:39.014Z,100284.22
2023-05-20T10:09:54.103Z,100275.00
2023-05-20T10:11:05.285Z,100278.38
2023-05-20T10:12:15.342Z,100276.41
2023-05-20T10:13:41.566Z,100273.59
2023-05-20T10:14:51.297Z,100272.75
2023-05-20T10:15:59.208Z,100270.81
2023-05-20T10:17:09.859Z,100278.63
2023-05-20T10:18:19.619Z,100274.41
2023-05-20T10:19:29.819Z,100264.34
2023-05-20T10:20:34.076Z,100263.50
2023-05-20T10:21:36.260Z,100257.31
2023-05-20T10:22:40.469Z,100256.50
2023-05-20T10:23:42.197Z,100252.00
2023-05-20T10:24:45.784Z,100258.44
2023-05-20T10:25:51.290Z,100250.34
2023-05-20T10:26:56.664Z,100256.75
2023-05-20T10:28:05.656Z,100248.66
2023-05-20T10:29:17.624Z,100255.09
2023-05-20T10:30:20.986Z,100252.31
2023-05-20T10:31:25.656Z,100241.66
2023-05-20T10:32:28.465Z,100240.81
2023-05-20T10:33:31.801Z,100240.28
2023-05-20T10:34:45.697Z,100238.03
2023-05-20T10:35:51.839Z,100246.16
2023-05-20T10:37:00.297Z,100238.34
2023-05-20T10:38:12.119Z,100236.91
2023-05-20T10:39:17.562Z,100229.09
2023-05-20T10:40:22.654Z,100232.72
2023-05-20T10:41:26.699Z,100229.91
2023-05-20T10:42:30.599Z,100240.28
2023-05-20T10:43:32.581Z,100235.22
2023-05-20T10:44:44.898Z,100227.94
2023-05-20T10:45:50.833Z,100231.56
2023-05-20T10:47:21.125Z,100237.13
2023-05-20T10:48:27.507Z,100238.22
2023-05-20T10:49:34.930Z,100232.34
2023-05-20T10:50:39.347Z,100231.19
2023-05-20T10:51:44.618Z,100212.97
2023-05-20T10:52:47.343Z,100220.78
2023-05-20T10:53:54.189Z,100225.59
2023-05-20T10:54:58.292Z,100214.09
2023-05-20T10:56:00.057Z,100223.38
2023-05-20T10:57:08.435Z,100215.81
2023-05-20T10:58:10.215Z,100222.84
2023-05-20T10:59:13.090Z,100216.41
2023-05-20T11:00:16.347Z,100217.78
2023-05-20T11:01:19.987Z,100219.72
2023-05-20T11:02:27.201Z,100226.72
2023-05-20T11:03:30.838Z,100225.03
2023-05-20T11:04:32.909Z,100225.00
2023-05-20T11:05:35.747Z,100219.38
2023-05-20T11:06:37.504Z,100221.59
2023-05-20T11:07:41.689Z,100223.25
2023-05-20T11:08:43.752Z,100229.13
2023-05-20T11:09:51.016Z,100227.69
2023-05-20T11:10:52.814Z,100232.41
2023-05-20T11:11:56.116Z,100215.81
2023-05-20T11:12:58.075Z,100216.03
2023-05-20T11:14:01.093Z,100220.19
2023-05-20T11:15:03.240Z,100230.16
2023-05-20T11:16:06.684Z,100216.66
2023-05-20T11:17:08.667Z,100225.50
2023-05-20T11:18:12.399Z,100221.22
2023-05-20T11:19:15.724Z,100221.97
2023-05-20T11:20:18.624Z,100225.88
2023-05-20T11:21:20.437Z,100219.69
2023-05-20T11:22:23.186Z,100225.28
2023-05-20T11:23:27.349Z,100214.66
2023-05-20T11:24:30.233Z,100213.03
2023-05-20T11:25:33.017Z,100214.16
2023-05-20T11:26:36.000Z,100213.31
2023-05-20T11:27:39.633Z,100212.47
2023-05-20T11:28:42.364Z,100216.72
2023-05-20T11:29:44.186Z,100214.81
2023-05-20T11:30:47.166Z,100206.72
2023-05-20T11:31:50.482Z,100210.41
2023-05-20T11:33:00.475Z,100208.53
2023-05-20T11:34:02.520Z,100199.34
2023-05-20T11:35:06.428Z,100213.16
2023-05-20T11:36:26.462Z,100209.53
2023-05-20T11:37:30.206Z,100200.66
2023-05-20T11:38:33.335Z,100208.53
2023-05-20T11:39:36.196Z,100208.59
2023-05-20T11:40:49.623Z,100208.63
2023-05-20T11:41:53.621Z,100203.63
2023-05-20T11:42:56.225Z,100200.22
2023-05-20T11:43:59.932Z,100192.91
2023-05-20T11:45:01.916Z,100192.34
2023-05-20T11:46:06.393Z,100199.84
2023-05-20T11:47:08.235Z,100195.00
2023-05-20T11:48:12.083Z,100196.59
2023-05-20T11:49:14.253Z,100192.00
2023-05-20T11:50:18.652Z,100190.03
2023-05-20T11:51:23.671Z,100190.84
2023-05-20T11:52:26.418Z,100191.91
2023-05-20T11:53:29.282Z,100181.25
2023-05-20T11:54:35.671Z,100188.53
2023-05-20T11:55:46.594Z,100191.91
2023-05-20T11:56:48.392Z,100192.47
2023-05-20T11:57:51.990Z,100186.03
2023-05-20T11:58:53.778Z,100187.19
2023-05-20T11:59:57.053Z,100183.91
2023-05-20T12:01:09.139Z,100191.28
2023-05-20T12:02:21.791Z,100189.66
2023-05-20T12:03:23.687Z,100181.53